createdAt,value
2022-08-10T00:00:07.521Z,102279.83
2022-08-10T00:05:13.183Z,102273.74
2022-08-10T00:10:21.056Z,102269.58
2022-08-10T00:15:53.051Z,102278.67
2022-08-10T00:20:33.790Z,102271.22
2022-08-10T00:25:39.430Z,102267.64
2022-08-10T00:30:45.104Z,102257.67
2022-08-10T00:35:50.661Z,102257.19
2022-08-10T00:40:56.122Z,102258.73
2022-08-10T00:46:01.687Z,102257.87
2022-08-10T00:51:07.766Z,102261.64
2022-08-10T00:56:35.251Z,102254.98
2022-08-10T01:02:08.496Z,102255.23
2022-08-10T01:06:37.157Z,102249.70
2022-08-10T01:12:39.279Z,102252.41
2022-08-10T01:16:59.221Z,102253.95
2022-08-10T01:22:29.286Z,102249.30
2022-08-10T01:27:40.714Z,102248.53
2022-08-10T01:33:04.273Z,102249.33
2022-08-10T01:38:22.122Z,102252.31
2022-08-10T01:43:29.838Z,102253.87
2022-08-10T01:48:47.175Z,102255.23
2022-08-10T01:53:55.713Z,102258.32
2022-08-10T01:59:04.368Z,102247.20
2022-08-10T02:04:13.348Z,102247.30
2022-08-10T02:09:25.007Z,102253.09
2022-08-10T02:14:36.507Z,102252.78
2022-08-10T02:19:44.289Z,102244.67
2022-08-10T02:24:51.927Z,102243.53
2022-08-10T02:29:59.101Z,102242.83
2022-08-10T02:35:07.929Z,102235.98
2022-08-10T02:45:15.216Z,102240.34
2022-08-10T02:45:30.861Z,102241.61
2022-08-10T02:50:35.240Z,102244.69
2022-08-10T02:55:49.489Z,102233.98
2022-08-10T03:00:57.785Z,102236.84
2022-08-10T03:06:06.549Z,102243.22
2022-08-10T03:11:17.438Z,102247.86
2022-08-10T03:16:26.128Z,102253.47
2022-08-10T03:21:35.215Z,102242.83
2022-08-10T03:26:41.142Z,102249.89
2022-08-10T03:31:48.204Z,102247.37
2022-08-10T03:36:53.972Z,102256.77
2022-08-10T03:42:01.588Z,102260.14
2022-08-10T03:47:16.050Z,102264.86
2022-08-10T03:52:17.625Z,102269.88
2022-08-10T03:57:24.766Z,102268.13
2022-08-10T04:02:43.491Z,102266.78
2022-08-10T04:07:38.833Z,102267.41
2022-08-10T04:12:44.396Z,102268.41
2022-08-10T04:18:04.514Z,102275.08
2022-08-10T04:23:00.483Z,102278.86
2022-08-10T04:28:07.199Z,102274.02
2022-08-10T04:33:15.424Z,102280.70
2022-08-10T04:38:23.247Z,102274.05
2022-08-10T04:43:29.036Z,102278.13
2022-08-10T04:48:43.198Z,102280.93
2022-08-10T04:54:04.596Z,102282.97
2022-08-10T04:58:49.522Z,102281.50
2022-08-10T05:04:34.009Z,102281.11
2022-08-10T05:09:04.350Z,102284.21
2022-08-10T05:14:09.912Z,102293.12
2022-08-10T05:19:15.475Z,102285.48
2022-08-10T05:24:21.043Z,102291.63
2022-08-10T05:29:28.342Z,102295.31
2022-08-10T05:34:34.538Z,102291.34
2022-08-10T05:39:41.712Z,102296.62
2022-08-10T05:44:47.343Z,102294.05
2022-08-10T05:49:53.676Z,102297.53
2022-08-10T05:55:02.734Z,102304.89
2022-08-10T06:00:37.021Z,102304.20
2022-08-10T06:05:23.727Z,102303.46
2022-08-10T06:10:35.253Z,102297.66
2022-08-10T06:15:51.943Z,102297.28
2022-08-10T06:20:48.814Z,102290.67
2022-08-10T06:26:10.367Z,102297.58
2022-08-10T06:31:04.612Z,102292.55
2022-08-10T06:36:11.879Z,102291.91
2022-08-10T06:42:14.959Z,102295.09
2022-08-10T06:46:36.568Z,102292.69
2022-08-10T06:51:44.049Z,102287.42
2022-08-10T06:57:16.704Z,102292.97
2022-08-10T07:02:10.051Z,102287.26
2022-08-10T07:07:24.451Z,102293.02
2022-08-10T07:12:32.713Z,102299.42
2022-08-10T07:17:39.885Z,102300.50
2022-08-10T07:23:01.784Z,102295.22
2022-08-10T07:28:00.441Z,102290.98
2022-08-10T07:33:06.719Z,102287.84
2022-08-10T07:38:15.320Z,102301.33
2022-08-10T07:43:23.954Z,102288.24
2022-08-10T07:48:32.489Z,102291.60
2022-08-10T07:53:42.691Z,102295.36
2022-08-10T07:58:52.694Z,102296.00
2022-08-10T08:04:11.064Z,102294.21
2022-08-10T08:09:08.143Z,102297.68
2022-08-10T08:14:15.714Z,102291.36
2022-08-10T08:19:26.663Z,102293.16
2022-08-10T08:24:34.486Z,102296.11
2022-08-10T08:29:43.079Z,102291.03
2022-08-10T08:34:50.424Z,102292.70
2022-08-10T08:39:58.250Z,102288.34
2022-08-10T08:45:48.260Z,102284.86
2022-08-10T08:50:57.711Z,102287.93
2022-08-10T08:56:08.491Z,102279.91
2022-08-10T09:01:41.422Z,102275.45
2022-08-10T09:06:48.809Z,102269.83
2022-08-10T09:12:03.385Z,102281.33
2022-08-10T09:17:26.969Z,102277.43
2022-08-10T09:22:57.745Z,102285.69
2022-08-10T09:28:09.504Z,102282.39
2022-08-10T09:36:23.864Z,102285.61
2022-08-10T09:38:52.306Z,102273.80
2022-08-10T09:44:18.559Z,102269.12
2022-08-10T09:49:56.405Z,102257.45
2022-08-10T09:55:11.769Z,102261.40
2022-08-10T10:00:20.592Z,102258.59
2022-08-10T10:05:50.270Z,102258.44
2022-08-10T10:11:19.717Z,102251.84
2022-08-10T10:16:40.651Z,102249.52
2022-08-10T10:22:01.320Z,102245.92
2022-08-10T10:27:26.723Z,102232.36
2022-08-10T10:32:37.346Z,102233.09
2022-08-10T10:38:02.037Z,102228.31
2022-08-10T10:43:03.093Z,102234.44
2022-08-10T10:48:32.933Z,102224.52
2022-08-10T10:54:08.710Z,102225.23
2022-08-10T10:59:53.891Z,102225.06
2022-08-10T11:04:48.831Z,102223.19
2022-08-10T11:10:04.744Z,102223.34
2022-08-10T11:15:28.723Z,102224.70
2022-08-10T11:20:42.977Z,102209.28
2022-08-10T11:25:51.512Z,102213.24
2022-08-10T11:31:02.915Z,102206.73
2022-08-10T11:36:22.817Z,102209.07
2022-08-10T11:46:54.344Z,102204.28
2022-08-10T11:52:14.957Z,102191.87
2022-08-10T11:57:21.342Z,102192.84
2022-08-10T12:02:34.572Z,102191.01
2022-08-10T12:10:05.835Z,102187.50
2022-08-10T12:13:06.113Z,102185.63
2022-08-10T12:18:20.442Z,102185.26
2022-08-10T12:23:48.032Z,102176.77
2022-08-10T12:29:04.243Z,102170.85
2022-08-10T12:34:21.927Z,102171.02
2022-08-10T12:39:30.529Z,102173.91
2022-08-10T12:44:51.763Z,102172.88
2022-08-10T12:50:29.322Z,102168.77
2022-08-10T12:55:17.948Z,102159.14
2022-08-10T13:00:29.258Z,102150.91
2022-08-10T13:06:02.221Z,102146.97
2022-08-10T13:10:46.418Z,102143.97
2022-08-10T13:15:53.606Z,102136.62
2022-08-10T13:21:02.146Z,102132.47
2022-08-10T13:26:10.852Z,102128.22
2022-08-10T13:31:19.725Z,102133.14
2022-08-10T13:36:31.494Z,102124.67
2022-08-10T13:41:43.069Z,102120.78
2022-08-10T13:46:53.627Z,102117.36
2022-08-10T13:51:59.917Z,102113.94
2022-08-10T13:57:06.944Z,102102.98
2022-08-10T14:02:15.457Z,102094.94
2022-08-10T14:07:21.453Z,102098.16
2022-08-10T14:12:33.528Z,102089.91
2022-08-10T14:17:44.761Z,102092.30
2022-08-10T14:22:48.744Z,102087.22
2022-08-10T14:28:02.867Z,102082.63
2022-08-10T14:33:05.110Z,102080.69
2022-08-10T14:38:13.747Z,102070.45
2022-08-10T14:43:28.278Z,102064.16
2022-08-10T14:48:34.095Z,102064.18
2022-08-10T14:53:40.650Z,102066.59
2022-08-10T14:59:06.166Z,102063.29
2022-08-10T15:04:12.521Z,102063.94
2022-08-10T15:09:20.835Z,102060.34
2022-08-10T15:14:43.620Z,102059.59
2022-08-10T15:20:04.123Z,102051.91
2022-08-10T15:25:01.293Z,102040.19
2022-08-10T15:30:08.374Z,102041.72
2022-08-10T15:35:34.345Z,102041.21
2022-08-10T15:40:50.864Z,102038.48
2022-08-10T15:46:00.668Z,102031.41
2022-08-10T15:51:09.382Z,102037.06
2022-08-10T15:56:17.981Z,102032.59
2022-08-10T16:02:04.087Z,102026.59
2022-08-10T16:07:03.312Z,102037.81
2022-08-10T16:12:29.035Z,102030.30
2022-08-10T16:17:54.717Z,102033.58
2022-08-10T16:22:43.053Z,102038.73
2022-08-10T16:27:48.827Z,102033.22
2022-08-10T16:32:56.012Z,102020.15
2022-08-10T16:38:02.265Z,102021.88
2022-08-10T16:43:11.037Z,102018.95
2022-08-10T16:48:49.034Z,102017.41
2022-08-10T16:53:31.022Z,102017.24
2022-08-10T16:58:40.006Z,102013.97
2022-08-10T17:04:07.984Z,102019.12
2022-08-10T17:09:04.779Z,102017.76
2022-08-10T17:14:11.149Z,102014.42
2022-08-10T17:19:19.488Z,102008.20
2022-08-10T17:24:28.030Z,102018.10
2022-08-10T17:29:57.544Z,102015.68
2022-08-10T17:34:46.319Z,102018.84
2022-08-10T17:39:55.239Z,102008.44
2022-08-10T17:45:02.892Z,102017.45
2022-08-10T17:50:12.227Z,102010.62
2022-08-10T17:55:19.202Z,102011.46
2022-08-10T18:00:25.327Z,102015.68
2022-08-10T18:05:35.491Z,102012.02
2022-08-10T18:10:42.602Z,102016.33
2022-08-10T18:15:50.183Z,102031.06
2022-08-10T18:21:09.057Z,102020.38
2022-08-10T18:26:17.763Z,102033.42
2022-08-10T18:31:31.716Z,102039.16
2022-08-10T18:36:43.983Z,102037.63
2022-08-10T18:42:04.959Z,102049.05
2022-08-10T18:47:15.689Z,102051.36
2022-08-10T18:52:24.080Z,102058.44
2022-08-10T18:57:58.413Z,102066.41
2022-08-10T19:03:22.407Z,102071.54
2022-08-10T19:08:51.096Z,102074.70
2022-08-10T19:14:19.489Z,102079.89
2022-08-10T19:19:51.397Z,102080.57
2022-08-10T19:26:41.772Z,102071.61
2022-08-10T19:30:51.118Z,102072.45
2022-08-10T19:36:05.653Z,102075.77
2022-08-10T19:41:44.225Z,102077.84
2022-08-10T19:46:51.275Z,102079.69
2022-08-10T19:52:23.428Z,102086.77
2022-08-10T19:57:43.888Z,102082.10
2022-08-10T20:03:12.042Z,102086.22
2022-08-10T20:08:26.301Z,102079.61
2022-08-10T20:13:59.918Z,102076.33
2022-08-10T20:19:08.449Z,102069.95
2022-08-10T20:24:20.751Z,102068.00
2022-08-10T20:29:57.417Z,102070.66
2022-08-10T20:34:51.709Z,102079.73
2022-08-10T20:40:18.342Z,102077.93
2022-08-10T20:45:41.493Z,102072.40
2022-08-10T20:51:00.690Z,102071.63
2022-08-10T20:56:28.672Z,102076.12
2022-08-10T21:02:07.351Z,102068.36
2022-08-10T21:07:58.282Z,102077.87
2022-08-10T21:12:54.790Z,102068.50
2022-08-10T21:18:09.245Z,102069.23
2022-08-10T21:23:16.632Z,102061.80
2022-08-10T21:28:49.902Z,102055.52
2022-08-10T21:33:58.434Z,102053.44
2022-08-10T21:39:09.943Z,102061.56
2022-08-10T21:44:37.411Z,102056.35
2022-08-10T21:50:27.725Z,102067.70
2022-08-10T21:55:57.637Z,102061.35
2022-08-10T22:01:31.862Z,102071.70
2022-08-10T22:06:53.245Z,102064.52
2022-08-10T22:18:10.017Z,102062.98
2022-08-10T22:23:37.680Z,102058.13
2022-08-10T22:29:03.952Z,102059.61
2022-08-10T22:31:26.947Z,102062.98
2022-08-10T22:34:35.712Z,102061.13
2022-08-10T22:40:20.525Z,102048.98
2022-08-10T22:45:44.301Z,102047.51
2022-08-10T22:50:59.529Z,102046.34
2022-08-10T22:56:23.891Z,102050.37
2022-08-10T23:02:09.000Z,102043.95
2022-08-10T23:07:09.011Z,102039.23
2022-08-10T23:12:24.406Z,102028.79
2022-08-10T23:18:02.149Z,102021.28
2022-08-10T23:22:58.463Z,102025.59
2022-08-10T23:28:06.736Z,102024.72
2022-08-10T23:33:16.873Z,102024.86
2022-08-10T23:38:26.979Z,102021.02
2022-08-10T23:44:02.844Z,102019.77
2022-08-10T23:48:50.569Z,102015.81
2022-08-10T23:53:58.453Z,102021.58
2022-08-10T23:59:04.818Z,102020.92
